sensor_id;sensor_type;location;lat;lon;timestamp;pressure;altitude;pressure_sealevel;temperature;humidity
7802;BME280;3945;48.952;9.506;2023-01-05T00:00:51;98323.63;;;10.99;87.84
7802;BME280;3945;48.952;9.506;2023-01-05T00:03:17;98314.22;;;10.96;87.69
7802;BME280;3945;48.952;9.506;2023-01-05T00:05:44;98317.38;;;10.93;88.16
7802;BME280;3945;48.952;9.506;2023-01-05T00:08:10;98315.25;;;10.95;88.11
7802;BME280;3945;48.952;9.506;2023-01-05T00:10:38;98306.72;;;10.93;88.44
7802;BME280;3945;48.952;9.506;2023-01-05T00:13:22;98315.97;;;10.90;88.79
7802;BME280;3945;48.952;9.506;2023-01-05T00:16:09;98306.59;;;10.88;88.62
7802;BME280;3945;48.952;9.506;2023-01-05T00:18:54;98300.59;;;10.92;88.44
7802;BME280;3945;48.952;9.506;2023-01-05T00:21:38;98300.81;;;10.91;88.38
7802;BME280;3945;48.952;9.506;2023-01-05T00:24:22;98298.97;;;10.91;88.46
7802;BME280;3945;48.952;9.506;2023-01-05T00:26:49;98311.34;;;10.98;87.93
7802;BME280;3945;48.952;9.506;2023-01-05T00:29:16;98295.84;;;10.94;88.48
7802;BME280;3945;48.952;9.506;2023-01-05T00:31:42;98297.91;;;10.92;89.04
7802;BME280;3945;48.952;9.506;2023-01-05T00:34:08;98292.59;;;10.92;89.53
7802;BME280;3945;48.952;9.506;2023-01-05T00:36:35;98289.25;;;10.85;89.96
7802;BME280;3945;48.952;9.506;2023-01-05T00:39:01;98293.53;;;10.86;89.68
7802;BME280;3945;48.952;9.506;2023-01-05T00:41:27;98296.19;;;10.86;89.57
7802;BME280;3945;48.952;9.506;2023-01-05T00:43:55;98297.00;;;10.87;89.37
7802;BME280;3945;48.952;9.506;2023-01-05T00:46:21;98295.72;;;10.89;88.80
7802;BME280;3945;48.952;9.506;2023-01-05T00:48:48;98300.22;;;10.89;88.70
7802;BME280;3945;48.952;9.506;2023-01-05T00:51:14;98294.44;;;10.92;88.36
7802;BME280;3945;48.952;9.506;2023-01-05T00:53:40;98282.75;;;10.93;88.25
7802;BME280;3945;48.952;9.506;2023-01-05T00:56:06;98289.00;;;10.99;87.68
7802;BME280;3945;48.952;9.506;2023-01-05T00:58:33;98281.22;;;10.97;87.97
7802;BME280;3945;48.952;9.506;2023-01-05T01:01:00;98280.28;;;11.03;87.48
7802;BME280;3945;48.952;9.506;2023-01-05T01:03:27;98277.97;;;11.07;87.29
7802;BME280;3945;48.952;9.506;2023-01-05T01:05:56;98281.22;;;11.09;87.15
7802;BME280;3945;48.952;9.506;2023-01-05T01:08:23;98279.69;;;11.13;86.73
7802;BME280;3945;48.952;9.506;2023-01-05T01:10:50;98283.41;;;11.12;87.34
7802;BME280;3945;48.952;9.506;2023-01-05T01:13:16;98284.44;;;11.11;87.27
7802;BME280;3945;48.952;9.506;2023-01-05T01:15:42;98290.34;;;11.13;87.13
7802;BME280;3945;48.952;9.506;2023-01-05T01:18:10;98282.94;;;11.15;87.05
7802;BME280;3945;48.952;9.506;2023-01-05T01:20:36;98273.66;;;11.17;86.28
7802;BME280;3945;48.952;9.506;2023-01-05T01:23:03;98273.09;;;11.15;87.16
7802;BME280;3945;48.952;9.506;2023-01-05T01:25:29;98279.56;;;11.19;86.45
7802;BME280;3945;48.952;9.506;2023-01-05T01:27:56;98275.88;;;11.20;86.50
7802;BME280;3945;48.952;9.506;2023-01-05T01:30:22;98272.75;;;11.23;86.52
7802;BME280;3945;48.952;9.506;2023-01-05T01:32:48;98274.91;;;11.26;86.63
7802;BME280;3945;48.952;9.506;2023-01-05T01:35:16;98257.31;;;11.25;86.68
7802;BME280;3945;48.952;9.506;2023-01-05T01:37:42;98275.72;;;11.27;86.47
7802;BME280;3945;48.952;9.506;2023-01-05T01:40:09;98265.66;;;11.29;86.11
7802;BME280;3945;48.952;9.506;2023-01-05T01:42:36;98274.44;;;11.29;86.57
7802;BME280;3945;48.952;9.506;2023-01-05T01:45:04;98274.19;;;11.31;86.49
7802;BME280;3945;48.952;9.506;2023-01-05T01:47:37;98270.25;;;11.33;86.70
7802;BME280;3945;48.952;9.506;2023-01-05T01:50:06;98275.13;;;11.37;86.41
7802;BME280;3945;48.952;9.506;2023-01-05T01:52:35;98270.75;;;11.30;86.57
7802;BME280;3945;48.952;9.506;2023-01-05T01:55:03;98263.06;;;11.34;86.74
7802;BME280;3945;48.952;9.506;2023-01-05T01:57:30;98269.44;;;11.33;86.92
7802;BME280;3945;48.952;9.506;2023-01-05T01:59:58;98272.13;;;11.33;87.41
7802;BME280;3945;48.952;9.506;2023-01-05T02:02:26;98271.53;;;11.31;87.81
7802;BME280;3945;48.952;9.506;2023-01-05T02:04:53;98266.09;;;11.26;87.67
7802;BME280;3945;48.952;9.506;2023-01-05T02:07:22;98267.72;;;11.27;88.19
7802;BME280;3945;48.952;9.506;2023-01-05T02:09:51;98264.84;;;11.28;88.21
7802;BME280;3945;48.952;9.506;2023-01-05T02:12:22;98255.69;;;11.24;89.28
7802;BME280;3945;48.952;9.506;2023-01-05T02:14:52;98260.91;;;11.19;89.33
7802;BME280;3945;48.952;9.506;2023-01-05T02:17:26;98265.94;;;11.16;90.25
7802;BME280;3945;48.952;9.506;2023-01-05T02:20:12;98263.72;;;11.13;90.19
7802;BME280;3945;48.952;9.506;2023-01-05T02:28:22;98241.38;;;11.14;89.54
7802;BME280;3945;48.952;9.506;2023-01-05T02:31:02;98242.41;;;11.13;89.93
7802;BME280;3945;48.952;9.506;2023-01-05T02:33:35;98240.09;;;11.16;89.48
7802;BME280;3945;48.952;9.506;2023-01-05T02:36:07;98242.41;;;11.13;89.30
7802;BME280;3945;48.952;9.506;2023-01-05T02:38:37;98238.72;;;11.14;89.29
7802;BME280;3945;48.952;9.506;2023-01-05T02:41:06;98237.19;;;11.18;88.98
7802;BME280;3945;48.952;9.506;2023-01-05T02:43:36;98231.31;;;11.16;88.55
7802;BME280;3945;48.952;9.506;2023-01-05T02:46:04;98235.56;;;11.17;88.80
7802;BME280;3945;48.952;9.506;2023-01-05T02:48:30;98236.94;;;11.19;89.33
7802;BME280;3945;48.952;9.506;2023-01-05T02:50:57;98231.84;;;11.18;89.48
7802;BME280;3945;48.952;9.506;2023-01-05T02:53:26;98226.19;;;11.14;89.67
7802;BME280;3945;48.952;9.506;2023-01-05T02:55:55;98224.81;;;11.12;91.03
7802;BME280;3945;48.952;9.506;2023-01-05T02:58:22;98219.16;;;11.08;91.56
7802;BME280;3945;48.952;9.506;2023-01-05T03:00:51;98228.09;;;11.02;91.90
7802;BME280;3945;48.952;9.506;2023-01-05T03:03:22;98226.94;;;10.98;92.11
7802;BME280;3945;48.952;9.506;2023-01-05T03:05:52;98224.28;;;10.98;92.35
7802;BME280;3945;48.952;9.506;2023-01-05T03:08:19;98230.63;;;10.97;91.96
7802;BME280;3945;48.952;9.506;2023-01-05T03:10:51;98224.50;;;10.96;91.53
7802;BME280;3945;48.952;9.506;2023-01-05T03:13:37;98231.22;;;10.99;91.41
7802;BME280;3945;48.952;9.506;2023-01-05T03:16:09;98238.31;;;10.93;91.26
7802;BME280;3945;48.952;9.506;2023-01-05T03:18:38;98239.66;;;10.96;91.93
7802;BME280;3945;48.952;9.506;2023-01-05T03:21:19;98247.91;;;10.94;91.67
7802;BME280;3945;48.952;9.506;2023-01-05T03:23:46;98243.63;;;10.93;91.61
7802;BME280;3945;48.952;9.506;2023-01-05T03:26:29;98252.16;;;10.95;92.13
7802;BME280;3945;48.952;9.506;2023-01-05T03:29:13;98247.09;;;10.94;92.47
7802;BME280;3945;48.952;9.506;2023-01-05T03:31:59;98248.38;;;10.91;92.77
7802;BME280;3945;48.952;9.506;2023-01-05T03:34:47;98253.13;;;10.89;93.74
7802;BME280;3945;48.952;9.506;2023-01-05T03:37:34;98254.06;;;10.83;93.83
7802;BME280;3945;48.952;9.506;2023-01-05T03:40:03;98248.97;;;10.82;93.83
7802;BME280;3945;48.952;9.506;2023-01-05T03:42:30;98244.66;;;10.81;94.32
7802;BME280;3945;48.952;9.506;2023-01-05T03:44:57;98250.25;;;10.79;94.02
7802;BME280;3945;48.952;9.506;2023-01-05T03:47:23;98251.75;;;10.87;94.03
7802;BME280;3945;48.952;9.506;2023-01-05T03:49:51;98245.63;;;10.86;93.74
7802;BME280;3945;48.952;9.506;2023-01-05T03:52:17;98243.19;;;10.85;93.91
7802;BME280;3945;48.952;9.506;2023-01-05T03:54:44;98250.34;;;10.84;93.64
7802;BME280;3945;48.952;9.506;2023-01-05T03:57:10;98250.13;;;10.86;93.55
7802;BME280;3945;48.952;9.506;2023-01-05T03:59:36;98248.38;;;10.91;92.64
7802;BME280;3945;48.952;9.506;2023-01-05T04:02:03;98244.09;;;10.90;92.94
7802;BME280;3945;48.952;9.506;2023-01-05T04:04:29;98246.63;;;10.97;92.65
7802;BME280;3945;48.952;9.506;2023-01-05T04:06:57;98234.69;;;11.00;92.28
7802;BME280;3945;48.952;9.506;2023-01-05T04:09:23;98237.13;;;11.01;92.81
7802;BME280;3945;48.952;9.506;2023-01-05T04:11:50;98244.09;;;11.02;92.40
7802;BME280;3945;48.952;9.506;2023-01-05T04:14:16;98245.13;;;11.01;93.23
7802;BME280;3945;48.952;9.506;2023-01-05T04:16:42;98236.56;;;10.99;92.94
7802;BME280;3945;48.952;9.506;2023-01-05T04:19:08;98240.25;;;10.98;93.10
7802;BME280;3945;48.952;9.506;2023-01-05T04:21:35;98235.75;;;10.99;93.06
7802;BME280;3945;48.952;9.506;2023-01-05T04:24:03;98242.69;;;11.00;92.94
7802;BME280;3945;48.952;9.506;2023-01-05T04:26:29;98236.56;;;10.99;93.02
7802;BME280;3945;48.952;9.506;2023-01-05T04:28:55;98238.84;;;10.95;93.30
7802;BME280;3945;48.952;9.506;2023-01-05T04:31:22;98245.81;;;10.96;93.70
7802;BME280;3945;48.952;9.506;2023-01-05T04:33:48;98244.84;;;11.03;94.31
7802;BME280;3945;48.952;9.506;2023-01-05T04:36:14;98248.09;;;11.16;93.66
7802;BME280;3945;48.952;9.506;2023-01-05T04:38:40;98251.84;;;11.32;93.08
7802;BME280;3945;48.952;9.506;2023-01-05T04:41:08;98249.38;;;11.42;92.77
7802;BME280;3945;48.952;9.506;2023-01-05T04:43:35;98255.59;;;11.48;93.12
7802;BME280;3945;48.952;9.506;2023-01-05T04:46:01;98258.34;;;11.53;93.66
7802;BME280;3945;48.952;9.506;2023-01-05T04:48:28;98258.69;;;11.56;94.34
7802;BME280;3945;48.952;9.506;2023-01-05T04:50:55;98259.66;;;11.50;94.70
7802;BME280;3945;48.952;9.506;2023-01-05T04:53:22;98252.72;;;11.49;95.19
7802;BME280;3945;48.952;9.506;2023-01-05T04:55:49;98252.63;;;11.44;96.69
7802;BME280;3945;48.952;9.506;2023-01-05T04:58:17;98255.97;;;11.40;97.35
7802;BME280;3945;48.952;9.506;2023-01-05T05:00:43;98256.13;;;11.33;98.37
7802;BME280;3945;48.952;9.506;2023-01-05T05:03:09;98258.94;;;11.26;98.87
7802;BME280;3945;48.952;9.506;2023-01-05T05:05:36;98262.88;;;11.24;99.72
7802;BME280;3945;48.952;9.506;2023-01-05T05:08:02;98267.41;;;11.23;100.00
7802;BME280;3945;48.952;9.506;2023-01-05T05:10:28;98263.81;;;11.18;100.00
7802;BME280;3945;48.952;9.506;2023-01-05T05:12:55;98273.09;;;11.15;100.00
7802;BME280;3945;48.952;9.506;2023-01-05T05:15:22;98278.66;;;11.14;100.00
7802;BME280;3945;48.952;9.506;2023-01-05T05:17:49;98281.78;;;11.11;100.00
7802;BME280;3945;48.952;9.506;2023-01-05T05:20:15;98284.13;;;11.07;100.00
7802;BME280;3945;48.952;9.506;2023-01-05T05:22:42;98287.59;;;11.08;100.00
7802;BME280;3945;48.952;9.506;2023-01-05T05:25:08;98283.75;;;11.04;100.00
7802;BME280;3945;48.952;9.506;2023-01-05T05:27:35;98285.53;;;10.98;100.00
7802;BME280;3945;48.952;9.506;2023-01-05T05:30:01;98287.13;;;10.99;100.00
7802;BME280;3945;48.952;9.506;2023-01-05T05:32:29;98300.69;;;10.98;100.00
7802;BME280;3945;48.952;9.506;2023-01-05T05:34:57;98297.44;;;10.95;100.00
7802;BME280;3945;48.952;9.506;2023-01-05T05:37:23;98301.72;;;10.96;100.00
7802;BME280;3945;48.952;9.506;2023-01-05T05:39:49;98299.28;;;10.95;100.00
7802;BME280;3945;48.952;9.506;2023-01-05T05:42:16;98314.56;;;10.88;100.00
7802;BME280;3945;48.952;9.506;2023-01-05T05:44:42;98312.97;;;10.87;100.00
7802;BME280;3945;48.952;9.506;2023-01-05T05:47:08;98318.75;;;10.84;100.00
7802;BME280;3945;48.952;9.506;2023-01-05T05:49:36;98307.78;;;10.80;100.00
7802;BME280;3945;48.952;9.506;2023-01-05T05:52:03;98314.25;;;10.84;100.00
7802;BME280;3945;48.952;9.506;2023-01-05T05:54:29;98325.94;;;10.83;100.00
7802;BME280;3945;48.952;9.506;2023-01-05T05:56:55;98325.72;;;10.85;100.00
7802;BME280;3945;48.952;9.506;2023-01-05T05:59:22;98333.34;;;10.81;100.00
7802;BME280;3945;48.952;9.506;2023-01-05T06:01:48;98345.28;;;10.79;100.00
7802;BME280;3945;48.952;9.506;2023-01-05T06:04:16;98346.31;;;10.78;100.00
7802;BME280;3945;48.952;9.506;2023-01-05T06:06:44;98343.28;;;10.74;100.00
7802;BME280;3945;48.952;9.506;2023-01-05T06:09:10;98352.34;;;10.73;100.00
7802;BME280;3945;48.952;9.506;2023-01-05T06:11:36;98355.00;;;10.73;100.00
7802;BME280;3945;48.952;9.506;2023-01-05T06:14:02;98361.69;;;10.64;100.00
7802;BME280;3945;48.952;9.506;2023-01-05T06:16:30;98374.19;;;10.64;100.00
7802;BME280;3945;48.952;9.506;2023-01-05T06:18:56;98380.56;;;10.63;100.00
7802;BME280;3945;48.952;9.506;2023-01-05T06:21:23;98382.41;;;10.62;100.00
7802;BME280;3945;48.952;9.506;2023-01-05T06:23:50;98389.34;;;10.63;100.00
7802;BME280;3945;48.952;9.506;2023-01-05T06:26:17;98399.50;;;10.54;100.00
7802;BME280;3945;48.952;9.506;2023-01-05T06:28:44;98393.97;;;10.56;100.00
7802;BME280;3945;48.952;9.506;2023-01-05T06:31:10;98407.38;;;10.49;100.00
7802;BME280;3945;48.952;9.506;2023-01-05T06:33:36;98415.47;;;10.54;100.00
7802;BME280;3945;48.952;9.506;2023-01-05T06:36:03;98409.22;;;10.49;100.00
7802;BME280;3945;48.952;9.506;2023-01-05T06:38:29;98416.41;;;10.48;100.00
7802;BME280;3945;48.952;9.506;2023-01-05T06:40:57;98406.78;;;10.47;100.00
7802;BME280;3945;48.952;9.506;2023-01-05T06:43:23;98418.69;;;10.45;100.00
7802;BME280;3945;48.952;9.506;2023-01-05T06:45:50;98412.22;;;10.41;100.00
7802;BME280;3945;48.952;9.506;2023-01-05T06:48:16;98422.50;;;10.37;100.00
7802;BME280;3945;48.952;9.506;2023-01-05T06:50:43;98409.22;;;10.37;100.00
7802;BME280;3945;48.952;9.506;2023-01-05T06:53:09;98408.41;;;10.37;100.00
7802;BME280;3945;48.952;9.506;2023-01-05T06:55:36;98403.28;;;10.35;100.00
7802;BME280;3945;48.952;9.506;2023-01-05T06:58:03;98397.16;;;10.35;100.00
7802;BME280;3945;48.952;9.506;2023-01-05T07:00:29;98405.03;;;10.30;100.00
7802;BME280;3945;48.952;9.506;2023-01-05T07:02:56;98410.69;;;10.33;100.00
7802;BME280;3945;48.952;9.506;2023-01-05T07:05:22;98404.78;;;10.31;100.00
7802;BME280;3945;48.952;9.506;2023-01-05T07:07:49;98411.72;;;10.32;100.00
7802;BME280;3945;48.952;9.506;2023-01-05T07:10:15;98408.13;;;10.27;100.00
7802;BME280;3945;48.952;9.506;2023-01-05T07:12:42;98408.13;;;10.27;100.00
7802;BME280;3945;48.952;9.506;2023-01-05T07:15:10;98420.50;;;10.33;99.90
7802;BME280;3945;48.952;9.506;2023-01-05T07:17:36;98425.94;;;10.26;99.81
7802;BME280;3945;48.952;9.506;2023-01-05T07:20:03;98429.75;;;10.30;99.77
7802;BME280;3945;48.952;9.506;2023-01-05T07:22:29;98437.81;;;10.24;99.31
7802;BME280;3945;48.952;9.506;2023-01-05T07:24:56;98445.56;;;10.25;99.43
7802;BME280;3945;48.952;9.506;2023-01-05T07:27:22;98441.06;;;10.26;99.82
7802;BME280;3945;48.952;9.506;2023-01-05T07:29:48;98446.03;;;10.22;99.63
7802;BME280;3945;48.952;9.506;2023-01-05T07:32:16;98451.13;;;10.24;99.07
7802;BME280;3945;48.952;9.506;2023-01-05T07:34:42;98441.16;;;10.19;98.55
7802;BME280;3945;48.952;9.506;2023-01-05T07:37:08;98447.28;;;10.20;99.12
7802;BME280;3945;48.952;9.506;2023-01-05T07:39:35;98447.88;;;10.22;99.09
7802;BME280;3945;48.952;9.506;2023-01-05T07:42:01;98443.13;;;10.24;99.05
7802;BME280;3945;48.952;9.506;2023-01-05T07:44:27;98440.47;;;10.24;99.03
7802;BME280;3945;48.952;9.506;2023-01-05T07:46:54;98451.00;;;10.18;98.49
7802;BME280;3945;48.952;9.506;2023-01-05T07:49:21;98461.19;;;10.22;98.55
7802;BME280;3945;48.952;9.506;2023-01-05T07:51:48;98467.75;;;10.19;98.80
7802;BME280;3945;48.952;9.506;2023-01-05T07:54:14;98464.06;;;10.20;98.57
7802;BME280;3945;48.952;9.506;2023-01-05T07:56:40;98473.47;;;10.23;98.97
7802;BME280;3945;48.952;9.506;2023-01-05T07:59:07;98474.72;;;10.20;98.68
7802;BME280;3945;48.952;9.506;2023-01-05T08:01:33;98470.41;;;10.19;98.52
7802;BME280;3945;48.952;9.506;2023-01-05T08:03:59;98476.34;;;10.21;98.50
7802;BME280;3945;48.952;9.506;2023-01-05T08:06:27;98489.41;;;10.23;98.51
7802;BME280;3945;48.952;9.506;2023-01-05T08:08:54;98479.34;;;10.25;98.32
7802;BME280;3945;48.952;9.506;2023-01-05T08:11:20;98483.41;;;10.27;98.63
7802;BME280;3945;48.952;9.506;2023-01-05T08:13:46;98487.00;;;10.33;98.34
7802;BME280;3945;48.952;9.506;2023-01-05T08:16:26;98478.00;;;10.34;97.84
7802;BME280;3945;48.952;9.506;2023-01-05T08:18:53;98478.59;;;10.36;98.13
7802;BME280;3945;48.952;9.506;2023-01-05T08:21:19;98485.97;;;10.34;98.96
7802;BME280;3945;48.952;9.506;2023-01-05T08:23:48;98484.34;;;10.33;99.09
7802;BME280;3945;48.952;9.506;2023-01-05T08:26:17;98494.78;;;10.34;98.89
7802;BME280;3945;48.952;9.506;2023-01-05T08:28:45;98489.81;;;10.38;98.83
7802;BME280;3945;48.952;9.506;2023-01-05T08:31:12;98499.66;;;10.37;98.83
7802;BME280;3945;48.952;9.506;2023-01-05T08:33:39;98509.84;;;10.40;98.75
7802;BME280;3945;48.952;9.506;2023-01-05T08:36:08;98496.19;;;10.37;98.84
7802;BME280;3945;48.952;9.506;2023-01-05T08:38:35;98497.00;;;10.37;98.66
7802;BME280;3945;48.952;9.506;2023-01-05T08:41:03;98501.13;;;10.33;99.05
7802;BME280;3945;48.952;9.506;2023-01-05T08:43:29;98502.75;;;10.34;98.87
7802;BME280;3945;48.952;9.506;2023-01-05T08:45:59;98508.66;;;10.36;98.97
7802;BME280;3945;48.952;9.506;2023-01-05T08:48:25;98509.69;;;10.35;98.79
7802;BME280;3945;48.952;9.506;2023-01-05T08:50:51;98518.84;;;10.39;98.56
7802;BME280;3945;48.952;9.506;2023-01-05T08:53:18;98524.38;;;10.38;98.31
7802;BME280;3945;48.952;9.506;2023-01-05T08:55:45;98526.00;;;10.39;98.55
7802;BME280;3945;48.952;9.506;2023-01-05T08:58:12;98532.16;;;10.39;98.51
7802;BME280;3945;48.952;9.506;2023-01-05T09:00:39;98531.34;;;10.39;97.96
7802;BME280;3945;48.952;9.506;2023-01-05T09:03:05;98534.81;;;10.39;98.48
7802;BME280;3945;48.952;9.506;2023-01-05T09:05:32;98539.31;;;10.39;97.93
7802;BME280;3945;48.952;9.506;2023-01-05T09:07:58;98546.72;;;10.37;98.29
7802;BME280;3945;48.952;9.506;2023-01-05T09:10:24;98538.88;;;10.42;98.04
7802;BME280;3945;48.952;9.506;2023-01-05T09:12:51;98538.06;;;10.41;97.94
7802;BME280;3945;48.952;9.506;2023-01-05T09:15:18;98537.03;;;10.42;97.76
7802;BME280;3945;48.952;9.506;2023-01-05T09:17:45;98544.13;;;10.48;97.48
7802;BME280;3945;48.952;9.506;2023-01-05T09:20:11;98553.03;;;10.54;97.06
7802;BME280;3945;48.952;9.506;2023-01-05T09:22:37;98552.22;;;10.53;97.21
7802;BME280;3945;48.952;9.506;2023-01-05T09:25:04;98558.38;;;10.54;96.89
7802;BME280;3945;48.952;9.506;2023-01-05T09:27:31;98565.31;;;10.55;96.44
7802;BME280;3945;48.952;9.506;2023-01-05T09:29:57;98569.22;;;10.52;96.01
7802;BME280;3945;48.952;9.506;2023-01-05T09:32:25;98567.16;;;10.54;95.69
7802;BME280;3945;48.952;9.506;2023-01-05T09:34:51;98570.41;;;10.56;95.08
7802;BME280;3945;48.952;9.506;2023-01-05T09:37:17;98581.28;;;10.55;95.21
7802;BME280;3945;48.952;9.506;2023-01-05T09:39:44;98584.53;;;10.57;94.61
7802;BME280;3945;48.952;9.506;2023-01-05T09:42:11;98585.09;;;10.59;94.45
7802;BME280;3945;48.952;9.506;2023-01-05T09:44:39;98590.00;;;10.62;94.37
7802;BME280;3945;48.952;9.506;2023-01-05T09:47:09;98592.75;;;10.55;94.13
7802;BME280;3945;48.952;9.506;2023-01-05T09:49:39;98592.53;;;10.57;94.55
7802;BME280;3945;48.952;9.506;2023-01-05T09:52:08;98590.44;;;10.59;94.17
7802;BME280;3945;48.952;9.506;2023-01-05T09:54:36;98587.19;;;10.57;93.99
7802;BME280;3945;48.952;9.506;2023-01-05T09:57:03;98594.00;;;10.53;94.14
7802;BME280;3945;48.952;9.506;2023-01-05T09:59:31;98590.69;;;10.57;93.79
7802;BME280;3945;48.952;9.506;2023-01-05T10:01:59;98593.91;;;10.60;93.67
7802;BME280;3945;48.952;9.506;2023-01-05T10:04:26;98593.69;;;10.61;93.50
7802;BME280;3945;48.952;9.506;2023-01-05T10:06:56;98588.59;;;10.60;92.51
7802;BME280;3945;48.952;9.506;2023-01-05T10:09:26;98599.81;;;10.62;92.16
7802;BME280;3945;48.952;9.506;2023-01-05T10:11:54;98600.03;;;10.60;92.00
7802;BME280;3945;48.952;9.506;2023-01-05T10:14:40;98592.66;;;10.62;91.20
7802;BME280;3945;48.952;9.506;2023-01-05T10:17:11;98600.41;;;10.64;90.60
7802;BME280;3945;48.952;9.506;2023-01-05T10:19:38;98601.81;;;10.66;90.45
7802;BME280;3945;48.952;9.506;2023-01-05T10:22:09;98603.44;;;10.67;90.04
7802;BME280;3945;48.952;9.506;2023-01-05T10:24:43;98598.09;;;10.67;88.69
7802;BME280;3945;48.952;9.506;2023-01-05T10:27:13;98597.53;;;10.65;88.65
7802;BME280;3945;48.952;9.506;2023-01-05T10:29:42;98591.41;;;10.65;88.73
7802;BME280;3945;48.952;9.506;2023-01-05T10:32:10;98591.16;;;10.66;88.11
7802;BME280;3945;48.952;9.506;2023-01-05T10:34:46;98585.84;;;10.66;88.39
7802;BME280;3945;48.952;9.506;2023-01-05T10:40:12;98590.28;;;10.72;86.66
7802;BME280;3945;48.952;9.506;2023-01-05T10:42:43;98577.53;;;10.74;85.78
7802;BME280;3945;48.952;9.506;2023-01-05T10:45:11;98582.28;;;10.72;86.32
7802;BME280;3945;48.952;9.506;2023-01-05T10:47:39;98586.00;;;10.71;86.31
7802;BME280;3945;48.952;9.506;2023-01-05T10:50:17;98588.06;;;10.69;86.11
7802;BME280;3945;48.952;9.506;2023-01-05T10:52:45;98587.63;;;10.72;86.30
7802;BME280;3945;48.952;9.506;2023-01-05T10:55:14;98584.59;;;10.69;86.08
7802;BME280;3945;48.952;9.506;2023-01-05T10:57:42;98586.44;;;10.68;85.56
7802;BME280;3945;48.952;9.506;2023-01-05T11:00:12;98591.16;;;10.66;86.51
7802;BME280;3945;48.952;9.506;2023-01-05T11:02:40;98590.38;;;10.66;86.26
7802;BME280;3945;48.952;9.506;2023-01-05T11:05:14;98577.63;;;10.68;86.45
7802;BME280;3945;48.952;9.506;2023-01-05T11:07:45;98583.97;;;10.67;85.95
7802;BME280;3945;48.952;9.506;2023-01-05T11:13:00;98576.59;;;10.69;85.99
7802;BME280;3945;48.952;9.506;2023-01-05T11:15:27;98576.72;;;10.74;85.11
7802;BME280;3945;48.952;9.506;2023-01-05T11:17:54;98583.94;;;10.73;85.28
7802;BME280;3945;48.952;9.506;2023-01-05T11:20:20;98588.78;;;10.76;85.79
7802;BME280;3945;48.952;9.506;2023-01-05T11:22:46;98585.91;;;10.78;84.78
7802;BME280;3945;48.952;9.506;2023-01-05T11:25:18;98589.50;;;10.83;84.82
7802;BME280;3945;48.952;9.506;2023-01-05T11:27:52;98593.78;;;10.84;84.51
7802;BME280;3945;48.952;9.506;2023-01-05T11:30:30;98583.75;;;10.86;84.19
7802;BME280;3945;48.952;9.506;2023-01-05T11:33:00;98587.22;;;10.87;84.87
7802;BME280;3945;48.952;9.506;2023-01-05T11:35:28;98583.63;;;10.93;84.11
7802;BME280;3945;48.952;9.506;2023-01-05T11:37:55;98591.03;;;10.91;83.57
7802;BME280;3945;48.952;9.506;2023-01-05T11:40:22;98590.22;;;10.90;83.35
7802;BME280;3945;48.952;9.506;2023-01-05T11:42:52;98586.53;;;10.91;83.92
7802;BME280;3945;48.952;9.506;2023-01-05T11:45:19;98582.81;;;10.92;84.28
7802;BME280;3945;48.952;9.506;2023-01-05T11:47:48;98591.84;;;10.91;83.51
7802;BME280;3945;48.952;9.506;2023-01-05T11:50:17;98590.44;;;10.89;83.80
7802;BME280;3945;48.952;9.506;2023-01-05T11:52:47;98584.69;;;10.92;84.09
7802;BME280;3945;48.952;9.506;2023-01-05T11:55:25;98588.16;;;10.92;83.39
7802;BME280;3945;48.952;9.506;2023-01-05T11:57:54;98592.88;;;10.90;84.10
7802;BME280;3945;48.952;9.506;2023-01-05T12:00:23;98585.13;;;10.89;83.76
7802;BME280;3945;48.952;9.506;2023-01-05T12:03:11;98587.34;;;10.92;83.89
7802;BME280;3945;48.952;9.506;2023-01-05T12:05:43;98583.06;;;10.91;84.02
7802;BME280;3945;48.952;9.506;2023-01-05T12:08:13;98585.72;;;10.91;82.90
7802;BME280;3945;48.952;9.506;2023-01-05T12:10:43;98592.66;;;10.92;82.93
7802;BME280;3945;48.952;9.506;2023-01-05T12:13:23;98591.84;;;10.91;83.84
7802;BME280;3945;48.952;9.506;2023-01-05T12:16:02;98589.31;;;10.96;82.81
7802;BME280;3945;48.952;9.506;2023-01-05T12:18:39;98591.84;;;10.91;82.31
7802;BME280;3945;48.952;9.506;2023-01-05T12:21:12;98581.06;;;10.86;83.21
7802;BME280;3945;48.952;9.506;2023-01-05T12:23:45;98599.25;;;10.89;82.98
7802;BME280;3945;48.952;9.506;2023-01-05T12:26:19;98604.13;;;10.92;82.02
7802;BME280;3945;48.952;9.506;2023-01-05T12:28:50;98589.88;;;10.87;82.44
7802;BME280;3945;48.952;9.506;2023-01-05T12:31:24;98595.78;;;10.89;81.86
7802;BME280;3945;48.952;9.506;2023-01-05T12:33:59;98597.88;;;10.87;82.50
7802;BME280;3945;48.952;9.506;2023-01-05T12:36:31;98596.81;;;10.88;82.04
7802;BME280;3945;48.952;9.506;2023-01-05T12:39:05;98602.22;;;10.81;82.42
7802;BME280;3945;48.952;9.506;2023-01-05T12:41:38;98602.69;;;10.78;81.80
7802;BME280;3945;48.952;9.506;2023-01-05T12:46:56;98608.13;;;10.83;82.18
7802;BME280;3945;48.952;9.506;2023-01-05T12:49:26;98606.72;;;10.81;82.03
7802;BME280;3945;48.952;9.506;2023-01-05T12:51:56;98603.72;;;10.77;82.58
7802;BME280;3945;48.952;9.506;2023-01-05T12:54:28;98605.34;;;10.78;82.26
7802;BME280;3945;48.952;9.506;2023-01-05T12:56:57;98608.22;;;10.77;83.37
7802;BME280;3945;48.952;9.506;2023-01-05T12:59:26;98605.44;;;10.72;83.83
7802;BME280;3945;48.952;9.506;2023-01-05T13:01:58;98613.03;;;10.68;84.57
7802;BME280;3945;48.952;9.506;2023-01-05T13:04:31;98615.34;;;10.65;85.06
7802;BME280;3945;48.952;9.506;2023-01-05T13:07:00;98612.78;;;10.58;85.06
7802;BME280;3945;48.952;9.506;2023-01-05T13:09:28;98615.78;;;10.62;85.77
7802;BME280;3945;48.952;9.506;2023-01-05T13:11:57;98607.75;;;10.50;86.34
7802;BME280;3945;48.952;9.506;2023-01-05T13:14:26;98611.22;;;10.50;86.76
7802;BME280;3945;48.952;9.506;2023-01-05T13:16:55;98610.19;;;10.51;87.46
7802;BME280;3945;48.952;9.506;2023-01-05T13:19:25;98617.00;;;10.47;87.76
7802;BME280;3945;48.952;9.506;2023-01-05T13:21:56;98606.56;;;10.46;88.29
7802;BME280;3945;48.952;9.506;2023-01-05T13:24:25;98617.00;;;10.47;87.79
7802;BME280;3945;48.952;9.506;2023-01-05T13:26:54;98617.94;;;10.53;87.13
7802;BME280;3945;48.952;9.506;2023-01-05T13:29:22;98611.22;;;10.50;86.82
7802;BME280;3945;48.952;9.506;2023-01-05T13:31:57;98607.28;;;10.53;86.19
7802;BME280;3945;48.952;9.506;2023-01-05T13:34:35;98604.41;;;10.54;85.38
7802;BME280;3945;48.952;9.506;2023-01-05T13:37:18;98610.94;;;10.59;85.53
7802;BME280;3945;48.952;9.506;2023-01-05T13:39:53;98606.03;;;10.55;85.43
7802;BME280;3945;48.952;9.506;2023-01-05T13:42:36;98613.94;;;10.62;84.88